createdAt,value
2022-10-05T00:02:57.340Z,98397.44
2022-10-05T00:08:13.543Z,98385.22
2022-10-05T00:13:20.730Z,98386.94
2022-10-05T00:18:26.137Z,98381.78
2022-10-05T00:23:33.009Z,98382.69
2022-10-05T00:28:37.217Z,98384.47
2022-10-05T00:33:42.066Z,98378.50
2022-10-05T00:38:46.556Z,98392.25
2022-10-05T00:44:28.161Z,98383.59
2022-10-05T00:49:51.410Z,98380.06
2022-10-05T00:55:04.638Z,98393.97
2022-10-05T01:00:13.285Z,98388.72
2022-10-05T01:05:33.144Z,98393.00
2022-10-05T01:10:41.998Z,98386.06
2022-10-05T01:15:55.206Z,98386.81
2022-10-05T01:21:08.219Z,98396.28
2022-10-05T01:26:32.389Z,98393.69
2022-10-05T01:31:43.586Z,98385.28
2022-10-05T01:36:57.405Z,98386.25
2022-10-05T01:42:08.521Z,98389.69
2022-10-05T01:47:23.523Z,98394.94
2022-10-05T01:52:29.759Z,98393.25
2022-10-05T01:57:43.995Z,98392.34
2022-10-05T02:02:51.951Z,98404.38
2022-10-05T02:08:00.637Z,98402.75
2022-10-05T02:13:10.806Z,98395.03
2022-10-05T02:18:23.879Z,98398.50
2022-10-05T02:23:33.205Z,98402.84
2022-10-05T02:28:41.862Z,98403.72
2022-10-05T02:33:46.677Z,98409.00
2022-10-05T02:38:57.238Z,98414.22
2022-10-05T02:44:06.946Z,98386.69
2022-10-05T02:49:22.316Z,98409.91
2022-10-05T02:54:38.709Z,98410.81
2022-10-05T02:59:47.500Z,98416.00
2022-10-05T03:05:00.791Z,98416.94
2022-10-05T03:10:13.910Z,98413.41
2022-10-05T03:15:37.445Z,98417.69
2022-10-05T03:20:50.735Z,98417.69
2022-10-05T03:26:08.770Z,98425.44
2022-10-05T03:31:21.423Z,98429.69
2022-10-05T03:36:34.808Z,98430.63
2022-10-05T03:41:44.778Z,98430.66
2022-10-05T03:47:09.349Z,98432.34
2022-10-05T03:52:17.722Z,98431.53
2022-10-05T03:57:24.856Z,98430.59
2022-10-05T04:02:32.314Z,98431.59
2022-10-05T04:07:44.676Z,98436.66
2022-10-05T04:12:53.794Z,98434.06
2022-10-05T04:18:03.276Z,98434.03
2022-10-05T04:23:18.422Z,98436.56
2022-10-05T04:28:32.243Z,98434.84
2022-10-05T04:33:35.939Z,98449.50
2022-10-05T04:38:49.649Z,98441.72
2022-10-05T04:44:10.156Z,98445.97
2022-10-05T04:49:34.222Z,98454.56
2022-10-05T04:54:51.754Z,98463.09
2022-10-05T05:00:07.575Z,98463.88
2022-10-05T05:05:33.582Z,98472.38
2022-10-05T05:11:00.074Z,98475.81
2022-10-05T05:16:10.742Z,98476.59
2022-10-05T05:21:26.162Z,98461.84
2022-10-05T05:26:42.640Z,98466.22
2022-10-05T05:31:51.916Z,98470.19
2022-10-05T05:37:02.276Z,98464.88
2022-10-05T05:42:24.954Z,98475.22
2022-10-05T05:47:36.006Z,98480.38
2022-10-05T05:52:44.355Z,98467.34
2022-10-05T05:57:55.216Z,98475.63
2022-10-05T06:03:04.904Z,98480.63
2022-10-05T06:08:18.493Z,98485.72
2022-10-05T06:13:27.394Z,98489.38
2022-10-05T06:18:34.833Z,98492.66
2022-10-05T06:23:45.176Z,98500.38
2022-10-05T06:28:58.252Z,98504.56
2022-10-05T06:34:17.261Z,98507.03
2022-10-05T06:39:41.415Z,98513.53
2022-10-05T06:44:54.551Z,98517.56
2022-10-05T06:50:06.104Z,98521.84
2022-10-05T06:55:19.512Z,98528.84
2022-10-05T07:00:26.972Z,98540.34
2022-10-05T07:05:46.551Z,98547.44
2022-10-05T07:11:06.817Z,98552.13
2022-10-05T07:16:21.433Z,98549.38
2022-10-05T07:21:40.141Z,98548.44
2022-10-05T07:26:48.765Z,98557.84
2022-10-05T07:32:03.061Z,98565.34
2022-10-05T07:37:29.336Z,98574.13
2022-10-05T07:42:52.120Z,98563.56
2022-10-05T07:47:59.388Z,98576.44
2022-10-05T07:53:12.878Z,98592.97
2022-10-05T07:58:23.017Z,98588.22
2022-10-05T08:03:35.647Z,98585.69
2022-10-05T08:08:48.367Z,98597.50
2022-10-05T08:13:56.190Z,98595.91
2022-10-05T08:19:08.412Z,98609.06
2022-10-05T08:24:20.595Z,98611.28
2022-10-05T08:29:31.815Z,98617.66
2022-10-05T08:34:46.215Z,98626.75
2022-10-05T08:39:58.354Z,98629.00
2022-10-05T08:45:35.945Z,98623.00
2022-10-05T08:51:06.517Z,98624.88
2022-10-05T08:56:32.200Z,98623.34
2022-10-05T09:01:55.537Z,98631.94
2022-10-05T09:07:17.334Z,98633.59
2022-10-05T09:12:54.728Z,98636.50
2022-10-05T09:18:36.178Z,98640.97
2022-10-05T09:23:43.237Z,98641.75
2022-10-05T09:29:05.987Z,98649.22
2022-10-05T09:34:44.913Z,98658.84
2022-10-05T09:40:42.357Z,98668.59
2022-10-05T09:46:12.596Z,98671.59
2022-10-05T09:52:01.835Z,98675.53
2022-10-05T09:57:49.355Z,98671.53
2022-10-05T10:03:24.345Z,98677.94
2022-10-05T10:08:42.050Z,98678.16
2022-10-05T10:14:07.066Z,98674.22
2022-10-05T10:19:21.627Z,98679.47
2022-10-05T10:24:45.087Z,98693.69
2022-10-05T10:30:19.980Z,98699.94
2022-10-05T10:35:35.683Z,98689.97
2022-10-05T10:40:44.529Z,98699.28
2022-10-05T10:45:58.674Z,98704.66
2022-10-05T10:51:20.283Z,98695.59
2022-10-05T10:56:55.369Z,98697.81
2022-10-05T11:02:20.126Z,98714.59
2022-10-05T11:07:50.320Z,98712.44
2022-10-05T11:13:24.836Z,98724.06
2022-10-05T11:18:43.393Z,98739.81
2022-10-05T11:24:38.981Z,98758.03
2022-10-05T11:30:27.786Z,98762.50
2022-10-05T11:35:58.266Z,98768.97
2022-10-05T11:41:29.741Z,98774.44
2022-10-05T11:46:42.277Z,98781.44
2022-10-05T11:51:56.912Z,98784.13
2022-10-05T11:57:05.825Z,98781.75
2022-10-05T12:02:44.887Z,98773.38
2022-10-05T12:08:07.131Z,98783.00
2022-10-05T12:13:21.415Z,98792.78
2022-10-05T12:18:47.593Z,98793.34
2022-10-05T12:23:56.381Z,98807.34
2022-10-05T12:29:06.430Z,98811.97
2022-10-05T12:34:22.124Z,98808.63
2022-10-05T12:39:38.352Z,98798.69
2022-10-05T12:45:09.650Z,98813.53
2022-10-05T12:50:29.560Z,98813.34
2022-10-05T12:55:42.150Z,98808.00
2022-10-05T13:00:52.902Z,98808.09
2022-10-05T13:06:08.421Z,98805.34
2022-10-05T13:11:18.799Z,98818.13
2022-10-05T13:16:35.166Z,98820.50
2022-10-05T13:22:00.964Z,98821.66
2022-10-05T13:27:14.565Z,98826.31
2022-10-05T13:32:22.727Z,98843.75
2022-10-05T13:37:35.969Z,98845.75
2022-10-05T13:42:45.273Z,98847.59
2022-10-05T13:48:05.223Z,98860.81
2022-10-05T13:53:19.612Z,98850.53
2022-10-05T13:58:34.959Z,98868.09
2022-10-05T14:03:39.814Z,98864.81
2022-10-05T14:08:53.712Z,98875.25
2022-10-05T14:14:13.754Z,98873.63
2022-10-05T14:19:23.839Z,98876.31
2022-10-05T14:24:43.709Z,98885.19
2022-10-05T14:29:56.881Z,98886.09
2022-10-05T14:35:16.900Z,98897.38
2022-10-05T14:40:32.377Z,98899.25
2022-10-05T14:45:36.784Z,98908.84
2022-10-05T14:50:55.795Z,98904.53
2022-10-05T14:56:29.650Z,98909.81
2022-10-05T15:01:37.406Z,98914.28
2022-10-05T15:06:46.543Z,98916.91
2022-10-05T15:11:56.011Z,98911.72
2022-10-05T15:17:03.644Z,98926.41
2022-10-05T15:22:29.629Z,98932.50
2022-10-05T15:27:44.975Z,98940.28
2022-10-05T15:33:04.424Z,98940.28
2022-10-05T15:38:19.950Z,98948.03
2022-10-05T15:43:26.510Z,98955.88
2022-10-05T15:48:43.549Z,98953.31
2022-10-05T15:54:16.980Z,98960.25
2022-10-05T15:59:33.153Z,98971.47
2022-10-05T16:04:48.287Z,98976.69
2022-10-05T16:10:03.281Z,98987.91
2022-10-05T16:15:22.564Z,98979.28
2022-10-05T16:20:38.850Z,98984.47
2022-10-05T16:25:55.854Z,98977.59
2022-10-05T16:31:08.121Z,98973.25
2022-10-05T16:36:24.945Z,98971.53
2022-10-05T16:41:44.054Z,98983.63
2022-10-05T16:46:54.755Z,98990.53
2022-10-05T16:52:01.367Z,98965.53
2022-10-05T16:57:14.327Z,99004.34
2022-10-05T17:02:34.155Z,99004.34
2022-10-05T17:08:06.640Z,99011.25
2022-10-05T17:13:23.807Z,99012.94
2022-10-05T17:18:50.349Z,99013.75
2022-10-05T17:23:56.412Z,99016.25
2022-10-05T17:29:10.125Z,99013.66
2022-10-05T17:34:31.495Z,99018.78
2022-10-05T17:39:51.902Z,99028.22
2022-10-05T17:44:55.911Z,99023.06
2022-10-05T17:50:19.540Z,99022.25
2022-10-05T17:55:45.102Z,99018.78
2022-10-05T18:01:17.889Z,99026.50
2022-10-05T18:06:49.093Z,99029.00
2022-10-05T18:12:27.301Z,99050.53
2022-10-05T18:17:46.002Z,99050.47
2022-10-05T18:22:53.402Z,99047.84
2022-10-05T18:28:13.101Z,99046.97
2022-10-05T18:33:49.392Z,99044.41
2022-10-05T18:39:02.823Z,99041.91
2022-10-05T18:44:24.886Z,99049.75
2022-10-05T18:49:48.036Z,99047.19
2022-10-05T18:55:03.259Z,99051.59
2022-10-05T19:00:16.062Z,99049.94
2022-10-05T19:05:47.895Z,99047.38
2022-10-05T19:10:57.393Z,99043.97
2022-10-05T19:16:17.855Z,99050.91
2022-10-05T19:21:31.391Z,99059.53
2022-10-05T19:26:53.017Z,99046.56
2022-10-05T19:32:03.447Z,99071.63
2022-10-05T19:37:13.863Z,99070.78
2022-10-05T19:42:33.061Z,99075.13
2022-10-05T19:47:49.192Z,99063.91
2022-10-05T19:52:58.111Z,99057.84
2022-10-05T19:58:04.003Z,99057.00
2022-10-05T20:03:12.030Z,99054.41
2022-10-05T20:08:19.242Z,99058.72
2022-10-05T20:13:24.356Z,99063.00
2022-10-05T20:19:06.854Z,99064.69
2022-10-05T20:24:12.117Z,99069.88
2022-10-05T20:29:17.631Z,99066.34
2022-10-05T20:34:21.750Z,99079.25
2022-10-05T20:39:25.922Z,99083.56
2022-10-05T20:44:31.102Z,99064.59
2022-10-05T20:49:35.973Z,99079.25
2022-10-05T20:54:39.306Z,99077.56
2022-10-05T20:59:45.104Z,99066.34
2022-10-05T21:04:48.743Z,99054.25
2022-10-05T21:09:52.983Z,99072.44
2022-10-05T21:14:59.336Z,99095.75
2022-10-05T21:20:03.331Z,99085.41
2022-10-05T21:25:09.079Z,99088.91
2022-10-05T21:30:15.036Z,99089.81
2022-10-05T21:35:19.163Z,99094.09
2022-10-05T21:40:24.796Z,99099.25
2022-10-05T21:45:31.796Z,99099.31
2022-10-05T21:50:36.901Z,99105.34
2022-10-05T21:55:43.150Z,99105.34
2022-10-05T22:00:48.634Z,99112.28
2022-10-05T22:05:53.031Z,99106.25
2022-10-05T22:10:58.267Z,99115.72
2022-10-05T22:16:03.646Z,99122.63
2022-10-05T22:21:08.796Z,99125.22
2022-10-05T22:26:15.528Z,99126.13
2022-10-05T22:31:21.227Z,99125.28
2022-10-05T22:36:25.305Z,99126.97
2022-10-05T22:41:29.531Z,99124.38
2022-10-05T22:46:35.406Z,99124.38
2022-10-05T22:51:39.410Z,99131.28
2022-10-05T22:56:43.505Z,99131.28
2022-10-05T23:01:49.221Z,99125.28
2022-10-05T23:06:53.412Z,99117.53
2022-10-05T23:11:58.249Z,99114.03
2022-10-05T23:17:03.467Z,99106.28
2022-10-05T23:22:07.570Z,99109.69
2022-10-05T23:27:11.748Z,99106.25
2022-10-05T23:32:16.776Z,99113.16
2022-10-05T23:37:23.050Z,99115.75
2022-10-05T23:42:26.492Z,99114.03
2022-10-05T23:47:31.961Z,99118.38
2022-10-05T23:52:35.479Z,99123.56
2022-10-05T23:57:40.394Z,99122.72
